sensor_id;sensor_type;location;lat;lon;timestamp;P1;durP1;ratioP1;P2;durP2;ratioP2
35917;SDS011;22011;59.912;30.300;2022-09-09T00:00:06;17.75;;;9.70;;
35917;SDS011;22011;59.912;30.300;2022-09-09T00:02:38;13.30;;;8.95;;
35917;SDS011;22011;59.912;30.300;2022-09-09T00:05:14;16.80;;;9.10;;
35917;SDS011;22011;59.912;30.300;2022-09-09T00:07:47;14.90;;;8.60;;
35917;SDS011;22011;59.912;30.300;2022-09-09T00:10:20;11.30;;;8.88;;
35917;SDS011;22011;59.912;30.300;2022-09-09T00:12:55;17.10;;;8.95;;
35917;SDS011;22011;59.912;30.300;2022-09-09T00:15:29;15.15;;;9.57;;
35917;SDS011;22011;59.912;30.300;2022-09-09T00:18:03;14.50;;;8.98;;
35917;SDS011;22011;59.912;30.300;2022-09-09T00:20:42;17.52;;;10.13;;
35917;SDS011;22011;59.912;30.300;2022-09-09T00:23:19;18.25;;;9.85;;
35917;SDS011;22011;59.912;30.300;2022-09-09T00:25:56;18.38;;;10.20;;
35917;SDS011;22011;59.912;30.300;2022-09-09T00:28:30;22.65;;;11.38;;
35917;SDS011;22011;59.912;30.300;2022-09-09T00:31:07;20.65;;;11.95;;
35917;SDS011;22011;59.912;30.300;2022-09-09T00:33:39;17.20;;;12.55;;
35917;SDS011;22011;59.912;30.300;2022-09-09T00:36:09;22.45;;;12.35;;
35917;SDS011;22011;59.912;30.300;2022-09-09T00:38:42;18.02;;;11.68;;
35917;SDS011;22011;59.912;30.300;2022-09-09T00:41:19;17.30;;;10.57;;
35917;SDS011;22011;59.912;30.300;2022-09-09T00:43:54;15.30;;;10.98;;
35917;SDS011;22011;59.912;30.300;2022-09-09T00:46:32;18.15;;;10.40;;
35917;SDS011;22011;59.912;30.300;2022-09-09T00:49:24;14.82;;;9.75;;
35917;SDS011;22011;59.912;30.300;2022-09-09T00:52:08;13.50;;;9.50;;
35917;SDS011;22011;59.912;30.300;2022-09-09T00:54:48;16.33;;;8.60;;
35917;SDS011;22011;59.912;30.300;2022-09-09T00:57:27;18.10;;;9.02;;
35917;SDS011;22011;59.912;30.300;2022-09-09T00:59:57;13.32;;;8.88;;
35917;SDS011;22011;59.912;30.300;2022-09-09T01:02:32;12.88;;;8.68;;
35917;SDS011;22011;59.912;30.300;2022-09-09T01:05:08;13.90;;;8.50;;
35917;SDS011;22011;59.912;30.300;2022-09-09T01:07:40;16.35;;;9.88;;
35917;SDS011;22011;59.912;30.300;2022-09-09T01:10:17;14.20;;;8.80;;
35917;SDS011;22011;59.912;30.300;2022-09-09T01:12:55;21.63;;;8.60;;
35917;SDS011;22011;59.912;30.300;2022-09-09T01:15:29;16.55;;;9.40;;
35917;SDS011;22011;59.912;30.300;2022-09-09T01:18:00;11.63;;;8.63;;
35917;SDS011;22011;59.912;30.300;2022-09-09T01:20:37;14.77;;;7.93;;
35917;SDS011;22011;59.912;30.300;2022-09-09T01:23:16;11.63;;;7.68;;
35917;SDS011;22011;59.912;30.300;2022-09-09T01:26:34;10.73;;;7.78;;
35917;SDS011;22011;59.912;30.300;2022-09-09T01:29:09;11.15;;;6.50;;
35917;SDS011;22011;59.912;30.300;2022-09-09T01:31:41;15.27;;;5.90;;
35917;SDS011;22011;59.912;30.300;2022-09-09T01:34:19;10.43;;;4.78;;
35917;SDS011;22011;59.912;30.300;2022-09-09T01:36:48;6.15;;;3.75;;
35917;SDS011;22011;59.912;30.300;2022-09-09T01:39:22;4.53;;;3.47;;
35917;SDS011;22011;59.912;30.300;2022-09-09T01:41:59;7.75;;;3.63;;
35917;SDS011;22011;59.912;30.300;2022-09-09T01:44:28;8.18;;;3.10;;
35917;SDS011;22011;59.912;30.300;2022-09-09T01:46:57;8.40;;;3.77;;
35917;SDS011;22011;59.912;30.300;2022-09-09T01:49:25;7.47;;;4.53;;
35917;SDS011;22011;59.912;30.300;2022-09-09T01:51:53;10.13;;;4.85;;
35917;SDS011;22011;59.912;30.300;2022-09-09T01:54:29;11.18;;;5.22;;
35917;SDS011;22011;59.912;30.300;2022-09-09T01:57:08;12.75;;;6.28;;
35917;SDS011;22011;59.912;30.300;2022-09-09T01:59:47;17.85;;;7.70;;
35917;SDS011;22011;59.912;30.300;2022-09-09T02:02:22;14.05;;;8.10;;
35917;SDS011;22011;59.912;30.300;2022-09-09T02:05:08;14.75;;;8.45;;
35917;SDS011;22011;59.912;30.300;2022-09-09T02:07:57;16.80;;;8.77;;
35917;SDS011;22011;59.912;30.300;2022-09-09T02:10:37;20.13;;;8.70;;
35917;SDS011;22011;59.912;30.300;2022-09-09T02:13:28;10.90;;;8.10;;
35917;SDS011;22011;59.912;30.300;2022-09-09T02:16:00;21.45;;;7.97;;
35917;SDS011;22011;59.912;30.300;2022-09-09T02:18:35;16.05;;;8.70;;
35917;SDS011;22011;59.912;30.300;2022-09-09T02:21:08;11.85;;;8.38;;
35917;SDS011;22011;59.912;30.300;2022-09-09T02:23:39;17.20;;;10.20;;
35917;SDS011;22011;59.912;30.300;2022-09-09T02:26:11;16.25;;;8.90;;
35917;SDS011;22011;59.912;30.300;2022-09-09T02:28:47;16.80;;;10.48;;
35917;SDS011;22011;59.912;30.300;2022-09-09T02:31:18;16.15;;;9.68;;
35917;SDS011;22011;59.912;30.300;2022-09-09T02:33:51;12.95;;;8.45;;
35917;SDS011;22011;59.912;30.300;2022-09-09T02:36:24;16.23;;;9.38;;
35917;SDS011;22011;59.912;30.300;2022-09-09T02:38:55;21.83;;;10.23;;
35917;SDS011;22011;59.912;30.300;2022-09-09T02:41:28;18.83;;;9.55;;
35917;SDS011;22011;59.912;30.300;2022-09-09T02:44:01;16.90;;;8.32;;
35917;SDS011;22011;59.912;30.300;2022-09-09T02:46:32;16.30;;;8.20;;
35917;SDS011;22011;59.912;30.300;2022-09-09T02:49:10;15.65;;;7.55;;
35917;SDS011;22011;59.912;30.300;2022-09-09T02:51:48;13.45;;;7.60;;
35917;SDS011;22011;59.912;30.300;2022-09-09T02:54:23;19.27;;;8.20;;
35917;SDS011;22011;59.912;30.300;2022-09-09T02:56:58;11.05;;;7.55;;
35917;SDS011;22011;59.912;30.300;2022-09-09T02:59:37;14.90;;;7.70;;
35917;SDS011;22011;59.912;30.300;2022-09-09T03:02:06;13.25;;;6.60;;
35917;SDS011;22011;59.912;30.300;2022-09-09T03:04:36;14.18;;;5.75;;
35917;SDS011;22011;59.912;30.300;2022-09-09T03:07:04;13.00;;;5.47;;
35917;SDS011;22011;59.912;30.300;2022-09-09T03:09:32;11.48;;;5.22;;
35917;SDS011;22011;59.912;30.300;2022-09-09T03:11:59;8.25;;;3.70;;
35917;SDS011;22011;59.912;30.300;2022-09-09T03:14:30;9.68;;;4.13;;
35917;SDS011;22011;59.912;30.300;2022-09-09T03:16:59;7.10;;;3.55;;
35917;SDS011;22011;59.912;30.300;2022-09-09T03:19:32;7.03;;;2.97;;
35917;SDS011;22011;59.912;30.300;2022-09-09T03:22:01;6.90;;;3.80;;
35917;SDS011;22011;59.912;30.300;2022-09-09T03:24:31;10.18;;;4.45;;
35917;SDS011;22011;59.912;30.300;2022-09-09T03:26:59;8.55;;;4.90;;
35917;SDS011;22011;59.912;30.300;2022-09-09T03:29:26;8.00;;;5.05;;
35917;SDS011;22011;59.912;30.300;2022-09-09T03:31:58;8.98;;;5.95;;
35917;SDS011;22011;59.912;30.300;2022-09-09T03:34:27;10.30;;;6.57;;
35917;SDS011;22011;59.912;30.300;2022-09-09T03:36:56;9.57;;;5.43;;
35917;SDS011;22011;59.912;30.300;2022-09-09T03:39:25;8.50;;;5.50;;
35917;SDS011;22011;59.912;30.300;2022-09-09T03:41:52;9.07;;;4.93;;
35917;SDS011;22011;59.912;30.300;2022-09-09T03:44:20;9.65;;;5.97;;
35917;SDS011;22011;59.912;30.300;2022-09-09T03:46:48;21.42;;;6.82;;
35917;SDS011;22011;59.912;30.300;2022-09-09T03:49:17;14.90;;;6.43;;
35917;SDS011;22011;59.912;30.300;2022-09-09T03:51:46;11.18;;;5.07;;
35917;SDS011;22011;59.912;30.300;2022-09-09T03:54:14;8.13;;;4.68;;
35917;SDS011;22011;59.912;30.300;2022-09-09T03:56:41;6.78;;;3.97;;
35917;SDS011;22011;59.912;30.300;2022-09-09T03:59:12;6.13;;;3.15;;
35917;SDS011;22011;59.912;30.300;2022-09-09T04:01:41;5.68;;;2.78;;
35917;SDS011;22011;59.912;30.300;2022-09-09T04:04:08;9.20;;;3.53;;
35917;SDS011;22011;59.912;30.300;2022-09-09T04:06:38;4.55;;;1.92;;
35917;SDS011;22011;59.912;30.300;2022-09-09T04:09:06;6.95;;;1.90;;
35917;SDS011;22011;59.912;30.300;2022-09-09T04:11:34;6.93;;;1.92;;
35917;SDS011;22011;59.912;30.300;2022-09-09T04:14:02;3.42;;;1.80;;
35917;SDS011;22011;59.912;30.300;2022-09-09T04:16:32;7.07;;;2.03;;
35917;SDS011;22011;59.912;30.300;2022-09-09T04:19:00;4.53;;;1.77;;
35917;SDS011;22011;59.912;30.300;2022-09-09T04:21:30;2.88;;;2.10;;
35917;SDS011;22011;59.912;30.300;2022-09-09T04:24:00;5.00;;;2.13;;
35917;SDS011;22011;59.912;30.300;2022-09-09T04:26:28;5.45;;;2.03;;
35917;SDS011;22011;59.912;30.300;2022-09-09T04:28:56;5.50;;;1.58;;
35917;SDS011;22011;59.912;30.300;2022-09-09T04:31:23;3.63;;;1.70;;
35917;SDS011;22011;59.912;30.300;2022-09-09T04:33:55;3.08;;;1.80;;
35917;SDS011;22011;59.912;30.300;2022-09-09T04:36:23;3.65;;;1.40;;
35917;SDS011;22011;59.912;30.300;2022-09-09T04:38:55;3.95;;;1.70;;
35917;SDS011;22011;59.912;30.300;2022-09-09T04:41:24;5.78;;;1.70;;
35917;SDS011;22011;59.912;30.300;2022-09-09T04:46:21;5.57;;;2.03;;
35917;SDS011;22011;59.912;30.300;2022-09-09T04:48:50;3.33;;;1.98;;
35917;SDS011;22011;59.912;30.300;2022-09-09T04:51:19;5.53;;;2.53;;
35917;SDS011;22011;59.912;30.300;2022-09-09T04:53:48;6.68;;;1.85;;
35917;SDS011;22011;59.912;30.300;2022-09-09T04:56:17;4.97;;;2.00;;
35917;SDS011;22011;59.912;30.300;2022-09-09T04:58:53;3.85;;;2.22;;
35917;SDS011;22011;59.912;30.300;2022-09-09T05:01:23;15.82;;;2.60;;
35917;SDS011;22011;59.912;30.300;2022-09-09T05:03:52;5.20;;;2.05;;
35917;SDS011;22011;59.912;30.300;2022-09-09T05:06:22;4.63;;;2.35;;
35917;SDS011;22011;59.912;30.300;2022-09-09T05:08:54;4.65;;;2.03;;
35917;SDS011;22011;59.912;30.300;2022-09-09T05:11:26;9.68;;;1.75;;
35917;SDS011;22011;59.912;30.300;2022-09-09T05:14:02;4.85;;;1.92;;
35917;SDS011;22011;59.912;30.300;2022-09-09T05:16:31;3.35;;;1.83;;
35917;SDS011;22011;59.912;30.300;2022-09-09T05:18:59;3.83;;;2.00;;
35917;SDS011;22011;59.912;30.300;2022-09-09T05:21:37;6.63;;;2.30;;
35917;SDS011;22011;59.912;30.300;2022-09-09T05:24:05;7.65;;;2.55;;
35917;SDS011;22011;59.912;30.300;2022-09-09T05:26:34;7.45;;;2.00;;
35917;SDS011;22011;59.912;30.300;2022-09-09T05:29:03;7.63;;;2.20;;
35917;SDS011;22011;59.912;30.300;2022-09-09T05:31:32;9.85;;;2.28;;
35917;SDS011;22011;59.912;30.300;2022-09-09T05:34:02;8.30;;;2.70;;
35917;SDS011;22011;59.912;30.300;2022-09-09T05:36:30;3.97;;;2.00;;
35917;SDS011;22011;59.912;30.300;2022-09-09T05:38:58;8.10;;;2.95;;
35917;SDS011;22011;59.912;30.300;2022-09-09T05:41:28;6.83;;;1.80;;
35917;SDS011;22011;59.912;30.300;2022-09-09T05:43:57;8.80;;;2.13;;
35917;SDS011;22011;59.912;30.300;2022-09-09T05:46:28;3.45;;;1.80;;
35917;SDS011;22011;59.912;30.300;2022-09-09T05:48:56;5.20;;;1.80;;
35917;SDS011;22011;59.912;30.300;2022-09-09T05:51:30;4.18;;;2.25;;
35917;SDS011;22011;59.912;30.300;2022-09-09T05:54:02;3.75;;;1.70;;
35917;SDS011;22011;59.912;30.300;2022-09-09T05:56:33;5.85;;;1.70;;
35917;SDS011;22011;59.912;30.300;2022-09-09T05:59:00;4.75;;;1.60;;
35917;SDS011;22011;59.912;30.300;2022-09-09T06:01:30;3.80;;;1.65;;
35917;SDS011;22011;59.912;30.300;2022-09-09T06:04:03;7.20;;;1.73;;
35917;SDS011;22011;59.912;30.300;2022-09-09T06:06:32;6.55;;;1.90;;
35917;SDS011;22011;59.912;30.300;2022-09-09T06:09:04;6.50;;;2.10;;
35917;SDS011;22011;59.912;30.300;2022-09-09T06:11:35;4.70;;;1.98;;
35917;SDS011;22011;59.912;30.300;2022-09-09T06:14:04;5.13;;;1.80;;
35917;SDS011;22011;59.912;30.300;2022-09-09T06:16:34;3.22;;;2.08;;
35917;SDS011;22011;59.912;30.300;2022-09-09T06:19:05;14.10;;;1.92;;
35917;SDS011;22011;59.912;30.300;2022-09-09T06:21:34;4.28;;;1.90;;
35917;SDS011;22011;59.912;30.300;2022-09-09T06:24:05;7.53;;;2.28;;
35917;SDS011;22011;59.912;30.300;2022-09-09T06:26:35;4.13;;;2.00;;
35917;SDS011;22011;59.912;30.300;2022-09-09T06:29:06;5.40;;;2.33;;
35917;SDS011;22011;59.912;30.300;2022-09-09T06:31:36;18.13;;;3.00;;
35917;SDS011;22011;59.912;30.300;2022-09-09T06:34:14;7.05;;;2.22;;
35917;SDS011;22011;59.912;30.300;2022-09-09T06:36:45;3.08;;;1.90;;
35917;SDS011;22011;59.912;30.300;2022-09-09T06:39:13;3.55;;;1.80;;
35917;SDS011;22011;59.912;30.300;2022-09-09T06:41:42;2.85;;;1.35;;
35917;SDS011;22011;59.912;30.300;2022-09-09T06:44:25;3.30;;;1.38;;
35917;SDS011;22011;59.912;30.300;2022-09-09T06:46:54;3.50;;;1.38;;
35917;SDS011;22011;59.912;30.300;2022-09-09T06:49:21;3.95;;;1.17;;
35917;SDS011;22011;59.912;30.300;2022-09-09T06:51:49;3.40;;;1.17;;
35917;SDS011;22011;59.912;30.300;2022-09-09T06:54:18;2.38;;;1.05;;
35917;SDS011;22011;59.912;30.300;2022-09-09T06:56:47;6.73;;;1.70;;
35917;SDS011;22011;59.912;30.300;2022-09-09T06:59:21;4.03;;;1.33;;
35917;SDS011;22011;59.912;30.300;2022-09-09T07:01:51;3.63;;;1.75;;
35917;SDS011;22011;59.912;30.300;2022-09-09T07:04:22;1.87;;;0.87;;
35917;SDS011;22011;59.912;30.300;2022-09-09T07:06:51;5.78;;;2.00;;
35917;SDS011;22011;59.912;30.300;2022-09-09T07:09:22;3.22;;;1.42;;
35917;SDS011;22011;59.912;30.300;2022-09-09T07:11:52;4.03;;;2.00;;
35917;SDS011;22011;59.912;30.300;2022-09-09T07:14:22;4.03;;;1.50;;
35917;SDS011;22011;59.912;30.300;2022-09-09T07:16:59;4.10;;;1.40;;
35917;SDS011;22011;59.912;30.300;2022-09-09T07:19:33;1.95;;;1.30;;
35917;SDS011;22011;59.912;30.300;2022-09-09T07:22:03;3.72;;;1.30;;
35917;SDS011;22011;59.912;30.300;2022-09-09T07:24:33;5.97;;;1.27;;
35917;SDS011;22011;59.912;30.300;2022-09-09T07:27:00;1.38;;;1.05;;
35917;SDS011;22011;59.912;30.300;2022-09-09T07:29:29;2.25;;;1.25;;
35917;SDS011;22011;59.912;30.300;2022-09-09T07:31:57;3.70;;;1.92;;
35917;SDS011;22011;59.912;30.300;2022-09-09T07:34:30;5.10;;;1.67;;
35917;SDS011;22011;59.912;30.300;2022-09-09T07:37:00;3.50;;;1.48;;
35917;SDS011;22011;59.912;30.300;2022-09-09T07:39:28;3.80;;;1.27;;
35917;SDS011;22011;59.912;30.300;2022-09-09T07:41:56;4.63;;;1.70;;
35917;SDS011;22011;59.912;30.300;2022-09-09T07:44:24;2.53;;;1.55;;
35917;SDS011;22011;59.912;30.300;2022-09-09T07:46:59;5.70;;;1.98;;
35917;SDS011;22011;59.912;30.300;2022-09-09T07:49:33;2.83;;;1.55;;
35917;SDS011;22011;59.912;30.300;2022-09-09T07:52:04;2.47;;;1.33;;
35917;SDS011;22011;59.912;30.300;2022-09-09T07:54:33;5.85;;;1.30;;
35917;SDS011;22011;59.912;30.300;2022-09-09T07:57:04;4.90;;;1.55;;
35917;SDS011;22011;59.912;30.300;2022-09-09T07:59:34;3.35;;;1.58;;
35917;SDS011;22011;59.912;30.300;2022-09-09T08:02:03;3.55;;;1.58;;
35917;SDS011;22011;59.912;30.300;2022-09-09T08:04:33;1.83;;;1.30;;
35917;SDS011;22011;59.912;30.300;2022-09-09T08:07:02;3.25;;;1.38;;
35917;SDS011;22011;59.912;30.300;2022-09-09T08:09:35;6.65;;;1.50;;
35917;SDS011;22011;59.912;30.300;2022-09-09T08:12:10;3.60;;;1.40;;
35917;SDS011;22011;59.912;30.300;2022-09-09T08:14:39;2.20;;;1.10;;
35917;SDS011;22011;59.912;30.300;2022-09-09T08:17:06;3.42;;;1.10;;
35917;SDS011;22011;59.912;30.300;2022-09-09T08:19:34;5.55;;;1.35;;
35917;SDS011;22011;59.912;30.300;2022-09-09T08:22:04;5.00;;;1.20;;
35917;SDS011;22011;59.912;30.300;2022-09-09T08:27:03;6.90;;;1.10;;
35917;SDS011;22011;59.912;30.300;2022-09-09T08:29:31;4.20;;;1.10;;
35917;SDS011;22011;59.912;30.300;2022-09-09T08:31:59;5.45;;;1.13;;
35917;SDS011;22011;59.912;30.300;2022-09-09T08:34:28;2.42;;;1.00;;
35917;SDS011;22011;59.912;30.300;2022-09-09T08:36:59;2.80;;;1.20;;
35917;SDS011;22011;59.912;30.300;2022-09-09T08:39:34;2.00;;;0.80;;
35917;SDS011;22011;59.912;30.300;2022-09-09T08:42:13;4.47;;;0.90;;
35917;SDS011;22011;59.912;30.300;2022-09-09T08:45:06;2.40;;;0.82;;
35917;SDS011;22011;59.912;30.300;2022-09-09T08:47:50;1.83;;;0.90;;
35917;SDS011;22011;59.912;30.300;2022-09-09T08:50:29;1.30;;;0.80;;
35917;SDS011;22011;59.912;30.300;2022-09-09T08:53:10;2.72;;;1.23;;
35917;SDS011;22011;59.912;30.300;2022-09-09T08:55:46;2.40;;;1.10;;
35917;SDS011;22011;59.912;30.300;2022-09-09T08:58:19;1.73;;;0.90;;
35917;SDS011;22011;59.912;30.300;2022-09-09T09:01:02;1.77;;;1.00;;
35917;SDS011;22011;59.912;30.300;2022-09-09T09:03:51;3.22;;;0.80;;
35917;SDS011;22011;59.912;30.300;2022-09-09T09:06:26;4.93;;;0.80;;
35917;SDS011;22011;59.912;30.300;2022-09-09T09:09:10;1.58;;;0.90;;
35917;SDS011;22011;59.912;30.300;2022-09-09T09:11:47;5.85;;;0.90;;
35917;SDS011;22011;59.912;30.300;2022-09-09T09:14:17;2.15;;;1.13;;
35917;SDS011;22011;59.912;30.300;2022-09-09T09:16:51;4.45;;;1.02;;
35917;SDS011;22011;59.912;30.300;2022-09-09T09:19:20;1.73;;;1.00;;
35917;SDS011;22011;59.912;30.300;2022-09-09T09:21:53;1.75;;;0.80;;
35917;SDS011;22011;59.912;30.300;2022-09-09T09:24:31;1.90;;;0.50;;
35917;SDS011;22011;59.912;30.300;2022-09-09T09:27:10;0.63;;;0.50;;
35917;SDS011;22011;59.912;30.300;2022-09-09T09:29:44;5.88;;;0.60;;
35917;SDS011;22011;59.912;30.300;2022-09-09T09:32:16;1.23;;;0.55;;
35917;SDS011;22011;59.912;30.300;2022-09-09T09:34:48;2.78;;;0.90;;
35917;SDS011;22011;59.912;30.300;2022-09-09T09:37:17;2.40;;;0.93;;
35917;SDS011;22011;59.912;30.300;2022-09-09T09:40:06;1.13;;;1.00;;
35917;SDS011;22011;59.912;30.300;2022-09-09T09:42:37;2.03;;;0.80;;
35917;SDS011;22011;59.912;30.300;2022-09-09T09:45:12;3.38;;;0.80;;
35917;SDS011;22011;59.912;30.300;2022-09-09T09:47:45;0.98;;;0.68;;
35917;SDS011;22011;59.912;30.300;2022-09-09T09:50:17;2.17;;;0.75;;
35917;SDS011;22011;59.912;30.300;2022-09-09T09:52:53;4.65;;;0.80;;
35917;SDS011;22011;59.912;30.300;2022-09-09T09:55:23;0.70;;;0.68;;
35917;SDS011;22011;59.912;30.300;2022-09-09T09:57:54;50.15;;;5.82;;
35917;SDS011;22011;59.912;30.300;2022-09-09T10:00:29;7.05;;;1.10;;
35917;SDS011;22011;59.912;30.300;2022-09-09T10:03:12;2.75;;;0.80;;
35917;SDS011;22011;59.912;30.300;2022-09-09T10:05:48;0.30;;;0.30;;
35917;SDS011;22011;59.912;30.300;2022-09-09T10:08:16;1.17;;;0.55;;
35917;SDS011;22011;59.912;30.300;2022-09-09T10:10:51;1.02;;;0.50;;
35917;SDS011;22011;59.912;30.300;2022-09-09T10:13:29;1.20;;;0.60;;
35917;SDS011;22011;59.912;30.300;2022-09-09T10:16:14;0.77;;;0.50;;
35917;SDS011;22011;59.912;30.300;2022-09-09T10:19:01;1.63;;;0.82;;
35917;SDS011;22011;59.912;30.300;2022-09-09T10:21:45;1.42;;;0.82;;
35917;SDS011;22011;59.912;30.300;2022-09-09T10:24:28;1.85;;;0.50;;
35917;SDS011;22011;59.912;30.300;2022-09-09T10:27:11;5.13;;;0.80;;
35917;SDS011;22011;59.912;30.300;2022-09-09T10:29:50;1.85;;;0.88;;
35917;SDS011;22011;59.912;30.300;2022-09-09T10:32:30;1.83;;;1.20;;
35917;SDS011;22011;59.912;30.300;2022-09-09T10:35:08;3.08;;;1.02;;
35917;SDS011;22011;59.912;30.300;2022-09-09T10:37:46;2.92;;;1.00;;
35917;SDS011;22011;59.912;30.300;2022-09-09T10:40:27;1.88;;;0.90;;
35917;SDS011;22011;59.912;30.300;2022-09-09T10:43:02;2.50;;;1.15;;
35917;SDS011;22011;59.912;30.300;2022-09-09T10:45:57;2.08;;;1.15;;
35917;SDS011;22011;59.912;30.300;2022-09-09T10:48:35;4.18;;;1.30;;
35917;SDS011;22011;59.912;30.300;2022-09-09T10:51:17;3.20;;;1.40;;
35917;SDS011;22011;59.912;30.300;2022-09-09T10:53:52;2.42;;;1.10;;
35917;SDS011;22011;59.912;30.300;2022-09-09T10:56:29;1.45;;;1.05;;
35917;SDS011;22011;59.912;30.300;2022-09-09T10:58:58;1.48;;;0.98;;
35917;SDS011;22011;59.912;30.300;2022-09-09T11:01:33;4.47;;;2.03;;
35917;SDS011;22011;59.912;30.300;2022-09-09T11:04:09;1.90;;;0.90;;
35917;SDS011;22011;59.912;30.300;2022-09-09T11:06:44;2.45;;;1.05;;
35917;SDS011;22011;59.912;30.300;2022-09-09T11:09:15;1.00;;;0.88;;
35917;SDS011;22011;59.912;30.300;2022-09-09T11:11:46;3.17;;;1.10;;
35917;SDS011;22011;59.912;30.300;2022-09-09T11:14:22;1.65;;;0.90;;
35917;SDS011;22011;59.912;30.300;2022-09-09T11:16:56;2.88;;;1.40;;
35917;SDS011;22011;59.912;30.300;2022-09-09T11:19:28;2.17;;;1.20;;
35917;SDS011;22011;59.912;30.300;2022-09-09T11:22:01;3.25;;;1.20;;
35917;SDS011;22011;59.912;30.300;2022-09-09T11:24:35;0.93;;;0.90;;
35917;SDS011;22011;59.912;30.300;2022-09-09T11:27:08;2.50;;;1.15;;
35917;SDS011;22011;59.912;30.300;2022-09-09T11:32:52;3.05;;;1.65;;
35917;SDS011;22011;59.912;30.300;2022-09-09T11:35:38;2.45;;;1.02;;
35917;SDS011;22011;59.912;30.300;2022-09-09T11:38:19;2.00;;;1.15;;
35917;SDS011;22011;59.912;30.300;2022-09-09T11:40:55;2.45;;;1.10;;
35917;SDS011;22011;59.912;30.300;2022-09-09T11:43:27;3.08;;;1.10;;
35917;SDS011;22011;59.912;30.300;2022-09-09T11:45:59;3.25;;;1.33;;
35917;SDS011;22011;59.912;30.300;2022-09-09T11:48:32;3.08;;;1.83;;
35917;SDS011;22011;59.912;30.300;2022-09-09T11:51:05;2.15;;;1.13;;
35917;SDS011;22011;59.912;30.300;2022-09-09T11:53:34;2.97;;;1.40;;
35917;SDS011;22011;59.912;30.300;2022-09-09T11:58:53;2.15;;;1.27;;
35917;SDS011;22011;59.912;30.300;2022-09-09T12:01:27;3.45;;;1.00;;
35917;SDS011;22011;59.912;30.300;2022-09-09T12:06:56;2.08;;;0.90;;
35917;SDS011;22011;59.912;30.300;2022-09-09T12:09:30;1.98;;;1.25;;
35917;SDS011;22011;59.912;30.300;2022-09-09T12:12:06;1.45;;;1.10;;
35917;SDS011;22011;59.912;30.300;2022-09-09T12:14:55;1.75;;;1.20;;
35917;SDS011;22011;59.912;30.300;2022-09-09T12:17:26;1.60;;;1.23;;
35917;SDS011;22011;59.912;30.300;2022-09-09T12:20:03;8.50;;;2.15;;
35917;SDS011;22011;59.912;30.300;2022-09-09T12:22:37;4.82;;;0.77;;
35917;SDS011;22011;59.912;30.300;2022-09-09T12:25:16;1.98;;;1.20;;
35917;SDS011;22011;59.912;30.300;2022-09-09T12:27:55;6.20;;;2.25;;
35917;SDS011;22011;59.912;30.300;2022-09-09T12:30:31;11.85;;;1.60;;
35917;SDS011;22011;59.912;30.300;2022-09-09T12:33:08;13.70;;;2.47;;
35917;SDS011;22011;59.912;30.300;2022-09-09T12:35:40;8.52;;;1.55;;
35917;SDS011;22011;59.912;30.300;2022-09-09T12:38:12;2.22;;;1.15;;
35917;SDS011;22011;59.912;30.300;2022-09-09T12:40:53;5.80;;;1.48;;
35917;SDS011;22011;59.912;30.300;2022-09-09T12:43:22;1.30;;;0.90;;
35917;SDS011;22011;59.912;30.300;2022-09-09T12:45:52;1.50;;;1.02;;
35917;SDS011;22011;59.912;30.300;2022-09-09T12:48:25;2.80;;;1.27;;
35917;SDS011;22011;59.912;30.300;2022-09-09T12:50:59;5.20;;;1.00;;
35917;SDS011;22011;59.912;30.300;2022-09-09T12:53:28;2.40;;;1.00;;
35917;SDS011;22011;59.912;30.300;2022-09-09T12:56:00;2.25;;;0.90;;
35917;SDS011;22011;59.912;30.300;2022-09-09T12:58:30;3.28;;;1.10;;
35917;SDS011;22011;59.912;30.300;2022-09-09T13:01:00;1.23;;;0.93;;
35917;SDS011;22011;59.912;30.300;2022-09-09T13:03:30;2.60;;;1.38;;
35917;SDS011;22011;59.912;30.300;2022-09-09T13:06:11;5.78;;;1.30;;
35917;SDS011;22011;59.912;30.300;2022-09-09T13:08:40;1.83;;;1.00;;
35917;SDS011;22011;59.912;30.300;2022-09-09T13:11:09;1.25;;;1.00;;
35917;SDS011;22011;59.912;30.300;2022-09-09T13:13:41;1.70;;;1.00;;
35917;SDS011;22011;59.912;30.300;2022-09-09T13:16:18;1.88;;;0.90;;
35917;SDS011;22011;59.912;30.300;2022-09-09T13:18:47;2.05;;;0.90;;
35917;SDS011;22011;59.912;30.300;2022-09-09T13:21:17;2.85;;;1.25;;
35917;SDS011;22011;59.912;30.300;2022-09-09T13:23:48;2.33;;;0.90;;
35917;SDS011;22011;59.912;30.300;2022-09-09T13:26:22;2.10;;;0.95;;
35917;SDS011;22011;59.912;30.300;2022-09-09T13:28:51;4.22;;;1.13;;
35917;SDS011;22011;59.912;30.300;2022-09-09T13:31:21;1.73;;;1.00;;
35917;SDS011;22011;59.912;30.300;2022-09-09T13:33:50;2.08;;;1.25;;
35917;SDS011;22011;59.912;30.300;2022-09-09T13:36:27;1.70;;;1.00;;
35917;SDS011;22011;59.912;30.300;2022-09-09T13:38:57;3.17;;;1.10;;
35917;SDS011;22011;59.912;30.300;2022-09-09T13:41:28;2.07;;;0.90;;
35917;SDS011;22011;59.912;30.300;2022-09-09T13:43:59;3.22;;;1.23;;
35917;SDS011;22011;59.912;30.300;2022-09-09T13:46:32;1.55;;;1.10;;
35917;SDS011;22011;59.912;30.300;2022-09-09T13:49:02;2.75;;;1.33;;
35917;SDS011;22011;59.912;30.300;2022-09-09T13:51:48;4.40;;;1.40;;
35917;SDS011;22011;59.912;30.300;2022-09-09T13:54:19;4.00;;;1.20;;
35917;SDS011;22011;59.912;30.300;2022-09-09T13:56:48;5.35;;;1.33;;
35917;SDS011;22011;59.912;30.300;2022-09-09T13:59:16;6.40;;;1.70;;
35917;SDS011;22011;59.912;30.300;2022-09-09T14:01:45;2.47;;;1.53;;
35917;SDS011;22011;59.912;30.300;2022-09-09T14:04:14;2.30;;;1.37;;
35917;SDS011;22011;59.912;30.300;2022-09-09T14:06:42;4.50;;;1.50;;
35917;SDS011;22011;59.912;30.300;2022-09-09T14:09:12;1.75;;;1.10;;
35917;SDS011;22011;59.912;30.300;2022-09-09T14:11:40;2.80;;;1.15;;
35917;SDS011;22011;59.912;30.300;2022-09-09T14:14:08;4.47;;;1.23;;
35917;SDS011;22011;59.912;30.300;2022-09-09T14:16:36;1.95;;;1.08;;
35917;SDS011;22011;59.912;30.300;2022-09-09T14:19:03;1.77;;;1.17;;
35917;SDS011;22011;59.912;30.300;2022-09-09T14:21:31;2.45;;;1.40;;
35917;SDS011;22011;59.912;30.300;2022-09-09T14:23:58;3.45;;;1.83;;
35917;SDS011;22011;59.912;30.300;2022-09-09T14:26:27;1.55;;;1.17;;
35917;SDS011;22011;59.912;30.300;2022-09-09T14:28:55;7.20;;;1.40;;
35917;SDS011;22011;59.912;30.300;2022-09-09T14:31:23;3.20;;;1.25;;
35917;SDS011;22011;59.912;30.300;2022-09-09T14:33:51;1.23;;;1.02;;
35917;SDS011;22011;59.912;30.300;2022-09-09T14:36:19;6.63;;;1.67;;
35917;SDS011;22011;59.912;30.300;2022-09-09T14:38:47;8.88;;;1.63;;
35917;SDS011;22011;59.912;30.300;2022-09-09T14:41:15;4.78;;;1.50;;
35917;SDS011;22011;59.912;30.300;2022-09-09T14:43:46;5.95;;;1.50;;
35917;SDS011;22011;59.912;30.300;2022-09-09T14:46:14;3.43;;;1.70;;
35917;SDS011;22011;59.912;30.300;2022-09-09T14:48:43;3.75;;;1.48;;
35917;SDS011;22011;59.912;30.300;2022-09-09T14:51:11;4.57;;;1.30;;
35917;SDS011;22011;59.912;30.300;2022-09-09T14:53:41;3.08;;;1.40;;
35917;SDS011;22011;59.912;30.300;2022-09-09T14:56:10;4.97;;;1.70;;
35917;SDS011;22011;59.912;30.300;2022-09-09T14:58:40;4.43;;;1.60;;
35917;SDS011;22011;59.912;30.300;2022-09-09T15:01:09;2.22;;;1.38;;
35917;SDS011;22011;59.912;30.300;2022-09-09T15:03:39;3.00;;;1.38;;
35917;SDS011;22011;59.912;30.300;2022-09-09T15:06:07;3.72;;;1.35;;
35917;SDS011;22011;59.912;30.300;2022-09-09T15:08:35;2.42;;;1.25;;
35917;SDS011;22011;59.912;30.300;2022-09-09T15:11:04;3.42;;;1.50;;
35917;SDS011;22011;59.912;30.300;2022-09-09T15:13:33;2.17;;;1.40;;
35917;SDS011;22011;59.912;30.300;2022-09-09T15:16:03;3.88;;;1.58;;